sensor_id;sensor_type;location;lat;lon;timestamp;P1;durP1;ratioP1;P2;durP2;ratioP2
16870;SDS011;8552;48.120;-1.456;2022-07-10T11:33:43;5.53;;;4.82;;
16870;SDS011;8552;48.120;-1.456;2022-07-10T11:36:23;1.67;;;1.48;;
16870;SDS011;8552;48.120;-1.456;2022-07-10T11:39:02;0.82;;;0.70;;
16870;SDS011;8552;48.120;-1.456;2022-07-10T11:41:33;0.90;;;0.90;;
16870;SDS011;8552;48.120;-1.456;2022-07-10T11:44:00;0.70;;;0.70;;
16870;SDS011;8552;48.120;-1.456;2022-07-10T11:46:27;1.30;;;1.10;;
16870;SDS011;8552;48.120;-1.456;2022-07-10T11:48:58;1.30;;;1.20;;
16870;SDS011;8552;48.120;-1.456;2022-07-10T11:51:34;1.95;;;1.75;;
16870;SDS011;8552;48.120;-1.456;2022-07-10T11:54:09;0.77;;;0.77;;
16870;SDS011;8552;48.120;-1.456;2022-07-10T11:56:42;2.28;;;0.90;;
16870;SDS011;8552;48.120;-1.456;2022-07-10T11:59:17;1.60;;;0.88;;
16870;SDS011;8552;48.120;-1.456;2022-07-10T12:01:47;0.68;;;0.68;;
16870;SDS011;8552;48.120;-1.456;2022-07-10T12:04:15;0.60;;;0.60;;
16870;SDS011;8552;48.120;-1.456;2022-07-10T12:06:43;2.13;;;0.75;;
16870;SDS011;8552;48.120;-1.456;2022-07-10T12:09:11;2.72;;;1.00;;
16870;SDS011;8552;48.120;-1.456;2022-07-10T12:11:42;1.17;;;0.80;;
16870;SDS011;8552;48.120;-1.456;2022-07-10T12:16:39;1.75;;;0.80;;
16870;SDS011;8552;48.120;-1.456;2022-07-10T12:19:07;0.73;;;0.73;;
16870;SDS011;8552;48.120;-1.456;2022-07-10T12:21:34;0.75;;;0.75;;
16870;SDS011;8552;48.120;-1.456;2022-07-10T12:24:00;1.13;;;1.02;;
16870;SDS011;8552;48.120;-1.456;2022-07-10T12:26:37;2.10;;;0.80;;
16870;SDS011;8552;48.120;-1.456;2022-07-10T12:29:04;2.28;;;1.10;;
16870;SDS011;8552;48.120;-1.456;2022-07-10T12:31:31;1.00;;;0.90;;
16870;SDS011;8552;48.120;-1.456;2022-07-10T12:33:59;0.60;;;0.60;;
16870;SDS011;8552;48.120;-1.456;2022-07-10T12:36:43;1.20;;;0.77;;
16870;SDS011;8552;48.120;-1.456;2022-07-10T12:39:11;0.60;;;0.60;;
16870;SDS011;8552;48.120;-1.456;2022-07-10T12:44:32;0.70;;;0.70;;
16870;SDS011;8552;48.120;-1.456;2022-07-10T12:47:13;1.20;;;0.80;;
16870;SDS011;8552;48.120;-1.456;2022-07-10T12:49:56;1.10;;;1.00;;
16870;SDS011;8552;48.120;-1.456;2022-07-10T12:52:35;1.65;;;0.70;;
16870;SDS011;8552;48.120;-1.456;2022-07-10T12:57:54;0.80;;;0.80;;
16870;SDS011;8552;48.120;-1.456;2022-07-10T13:00:21;0.80;;;0.80;;
16870;SDS011;8552;48.120;-1.456;2022-07-10T13:03:01;1.80;;;0.85;;
16870;SDS011;8552;48.120;-1.456;2022-07-10T13:05:29;0.85;;;0.82;;
16870;SDS011;8552;48.120;-1.456;2022-07-10T13:10:45;0.75;;;0.73;;
16870;SDS011;8552;48.120;-1.456;2022-07-10T13:13:13;0.50;;;0.50;;
16870;SDS011;8552;48.120;-1.456;2022-07-10T13:15:39;0.70;;;0.70;;
16870;SDS011;8552;48.120;-1.456;2022-07-10T13:18:11;1.85;;;0.93;;
16870;SDS011;8552;48.120;-1.456;2022-07-10T13:20:38;0.88;;;0.50;;
16870;SDS011;8552;48.120;-1.456;2022-07-10T13:23:04;0.60;;;0.60;;
16870;SDS011;8552;48.120;-1.456;2022-07-10T13:25:29;2.33;;;0.60;;
16870;SDS011;8552;48.120;-1.456;2022-07-10T13:27:56;0.77;;;0.77;;
16870;SDS011;8552;48.120;-1.456;2022-07-10T13:30:21;0.73;;;0.60;;
16870;SDS011;8552;48.120;-1.456;2022-07-10T13:32:47;0.50;;;0.50;;
16870;SDS011;8552;48.120;-1.456;2022-07-10T13:35:13;0.60;;;0.60;;
16870;SDS011;8552;48.120;-1.456;2022-07-10T13:37:38;2.83;;;0.73;;
16870;SDS011;8552;48.120;-1.456;2022-07-10T13:40:04;0.63;;;0.43;;
16870;SDS011;8552;48.120;-1.456;2022-07-10T13:42:31;0.80;;;0.70;;
16870;SDS011;8552;48.120;-1.456;2022-07-10T13:44:56;1.23;;;0.85;;
16870;SDS011;8552;48.120;-1.456;2022-07-10T13:47:22;0.50;;;0.50;;
16870;SDS011;8552;48.120;-1.456;2022-07-10T13:49:48;0.52;;;0.52;;
16870;SDS011;8552;48.120;-1.456;2022-07-10T13:52:14;0.35;;;0.35;;
16870;SDS011;8552;48.120;-1.456;2022-07-10T13:54:40;0.82;;;0.70;;
16870;SDS011;8552;48.120;-1.456;2022-07-10T13:57:06;1.15;;;0.50;;
16870;SDS011;8552;48.120;-1.456;2022-07-10T13:59:32;1.48;;;0.80;;
16870;SDS011;8552;48.120;-1.456;2022-07-10T14:01:57;0.85;;;0.50;;
16870;SDS011;8552;48.120;-1.456;2022-07-10T14:04:23;0.65;;;0.65;;
16870;SDS011;8552;48.120;-1.456;2022-07-10T14:06:49;1.27;;;0.70;;
16870;SDS011;8552;48.120;-1.456;2022-07-10T14:09:14;1.20;;;0.70;;
16870;SDS011;8552;48.120;-1.456;2022-07-10T14:11:40;0.73;;;0.60;;
16870;SDS011;8552;48.120;-1.456;2022-07-10T14:14:09;0.82;;;0.60;;
16870;SDS011;8552;48.120;-1.456;2022-07-10T14:16:36;0.40;;;0.40;;
16870;SDS011;8552;48.120;-1.456;2022-07-10T14:19:01;0.98;;;0.95;;
16870;SDS011;8552;48.120;-1.456;2022-07-10T14:21:27;0.47;;;0.47;;
16870;SDS011;8552;48.120;-1.456;2022-07-10T14:23:53;0.40;;;0.40;;
16870;SDS011;8552;48.120;-1.456;2022-07-10T14:26:21;0.55;;;0.55;;
16870;SDS011;8552;48.120;-1.456;2022-07-10T14:28:47;0.80;;;0.80;;
16870;SDS011;8552;48.120;-1.456;2022-07-10T14:31:13;0.70;;;0.70;;
16870;SDS011;8552;48.120;-1.456;2022-07-10T14:33:39;0.60;;;0.60;;
16870;SDS011;8552;48.120;-1.456;2022-07-10T14:36:05;0.50;;;0.50;;
16870;SDS011;8552;48.120;-1.456;2022-07-10T14:38:31;1.00;;;0.90;;
